Time;durP1;ratioP1;P1;durP2;ratioP2;P2;SDS_P1;SDS_P2;PMS_P1;PMS_P2;Temp;Humidity;BMP_temperature;BMP_pressure;BME280_temperature;BME280_humidity;BME280_pressure;Samples;Min_cycle;Max_cycle;Signal;HPM_P1;HPM_P2
2021/06/17 00:00:01;;;;;;;24.00;19.67;;;;;;;;;;5158928;27;20469;-58
2021/06/17 00:02:28;;;;;;;16.53;11.30;;;;;;;;;;5158510;27;20505;-59
2021/06/17 00:04:56;;;;;;;8.60;6.40;;;;;;;;;;5158599;27;20467;-54
2021/06/17 00:07:25;;;;;;;7.03;5.77;;;;;;;;;;5156917;27;20445;-57
2021/06/17 00:09:52;;;;;;;9.27;6.00;;;;;;;;;;5159971;27;20461;-54
2021/06/17 00:12:20;;;;;;;10.70;6.27;;;;;;;;;;5159377;27;20477;-56
2021/06/17 00:15:11;;;;;;;7.57;6.07;;;;;;;;;;5139407;27;20483;-56
2021/06/17 00:17:39;;;;;;;7.83;6.10;;;;;;;;;;5155563;27;20485;-58
2021/06/17 00:20:07;;;;;;;9.43;5.60;;;;;;;;;;5141386;27;20457;-56
2021/06/17 00:22:44;;;;;;;9.73;6.70;;;;;;;;;;5139457;28;20521;-53
2021/06/17 00:25:13;;;;;;;7.27;5.23;;;;;;;;;;5152000;27;20491;-57
2021/06/17 00:27:40;;;;;;;9.30;6.60;;;;;;;;;;5158953;27;20483;-55
2021/06/17 00:30:12;;;;;;;7.20;6.23;;;;;;;;;;5146654;27;20531;-58
2021/06/17 00:32:39;;;;;;;6.40;5.47;;;;;;;;;;5154768;27;20507;-56
2021/06/17 00:35:08;;;;;;;8.10;5.77;;;;;;;;;;5149166;27;20437;-54
2021/06/17 00:37:57;;;;;;;8.20;6.23;;;;;;;;;;5154727;27;20439;-56
2021/06/17 00:40:27;;;;;;;9.03;7.30;;;;;;;;;;5150107;27;20481;-54
2021/06/17 00:42:55;;;;;;;8.83;7.73;;;;;;;;;;5159883;27;20451;-54
2021/06/17 00:45:51;;;;;;;7.80;6.27;;;;;;;;;;5158544;27;20473;-53
2021/06/17 00:48:19;;;;;;;8.17;5.93;;;;;;;;;;5156910;27;20473;-55
2021/06/17 00:50:47;;;;;;;7.90;6.17;;;;;;;;;;5139304;28;20444;-55
2021/06/17 00:53:16;;;;;;;6.60;5.83;;;;;;;;;;5150435;27;20454;-57
2021/06/17 00:55:48;;;;;;;8.80;5.93;;;;;;;;;;5160074;27;20446;-54
2021/06/17 00:58:19;;;;;;;7.60;5.80;;;;;;;;;;5159546;27;20414;-55
2021/06/17 01:00:47;;;;;;;8.00;6.33;;;;;;;;;;5158819;27;20500;-54
2021/06/17 01:03:15;;;;;;;8.23;6.17;;;;;;;;;;5154538;27;21049;-56
2021/06/17 01:05:44;;;;;;;6.33;5.53;;;;;;;;;;5138991;28;20446;-52
2021/06/17 01:08:27;;;;;;;9.73;6.03;;;;;;;;;;5151357;27;20518;-54
2021/06/17 01:11:02;;;;;;;7.43;5.67;;;;;;;;;;5158974;27;20475;-58
2021/06/17 01:13:33;;;;;;;6.83;5.73;;;;;;;;;;5158220;27;20508;-57
2021/06/17 01:16:06;;;;;;;7.50;5.47;;;;;;;;;;5158852;27;20498;-58
2021/06/17 01:18:42;;;;;;;10.40;8.30;;;;;;;;;;5158498;27;20440;-56
2021/06/17 01:21:13;;;;;;;7.40;5.90;;;;;;;;;;5159179;27;20445;-55
2021/06/17 01:23:58;;;;;;;10.30;8.33;;;;;;;;;;5139177;27;20481;-57
2021/06/17 01:26:39;;;;;;;9.00;6.50;;;;;;;;;;5137954;28;20460;-53
2021/06/17 01:29:11;;;;;;;9.33;6.27;;;;;;;;;;5156540;27;20454;-59
2021/06/17 01:31:38;;;;;;;7.30;5.60;;;;;;;;;;5137578;28;20486;-58
2021/06/17 01:34:17;;;;;;;7.47;5.60;;;;;;;;;;5136667;28;20455;-57
2021/06/17 01:36:48;;;;;;;10.23;7.60;;;;;;;;;;5137492;27;20488;-53
2021/06/17 01:39:16;;;;;;;10.70;6.23;;;;;;;;;;5136977;28;20514;-54
2021/06/17 01:41:51;;;;;;;10.13;7.83;;;;;;;;;;5142487;27;20466;-55
2021/06/17 01:44:21;;;;;;;8.03;6.13;;;;;;;;;;5136838;28;20458;-55
2021/06/17 01:46:49;;;;;;;8.67;6.30;;;;;;;;;;5136383;28;20449;-54
2021/06/17 01:49:23;;;;;;;8.47;6.57;;;;;;;;;;5136678;28;20500;-58
2021/06/17 01:51:50;;;;;;;7.67;5.57;;;;;;;;;;5151196;27;20486;-54
2021/06/17 01:54:26;;;;;;;7.33;5.13;;;;;;;;;;5148252;27;20450;-59
2021/06/17 01:57:00;;;;;;;8.20;6.40;;;;;;;;;;5155450;27;20459;-57
2021/06/17 01:59:31;;;;;;;12.73;8.20;;;;;;;;;;5157194;27;20510;-57
2021/06/17 02:01:59;;;;;;;15.53;9.47;;;;;;;;;;5156702;27;20516;-57
2021/06/17 02:04:27;;;;;;;6.67;5.97;;;;;;;;;;5155379;27;20437;-62
2021/06/17 02:06:55;;;;;;;9.20;6.20;;;;;;;;;;5152773;27;20482;-53
2021/06/17 02:09:36;;;;;;;9.27;5.77;;;;;;;;;;5156675;27;20434;-60
2021/06/17 02:12:04;;;;;;;8.70;5.63;;;;;;;;;;5156875;27;20481;-59
2021/06/17 02:14:32;;;;;;;7.33;6.13;;;;;;;;;;5157289;27;20483;-55
2021/06/17 02:17:09;;;;;;;13.83;5.60;;;;;;;;;;5156869;27;20450;-54
2021/06/17 02:19:37;;;;;;;7.20;5.63;;;;;;;;;;5157248;27;20452;-55
2021/06/17 02:22:05;;;;;;;6.50;5.40;;;;;;;;;;5156796;27;20477;-54
2021/06/17 02:24:38;;;;;;;6.90;5.50;;;;;;;;;;5156744;27;20446;-57
2021/06/17 02:27:07;;;;;;;8.27;6.10;;;;;;;;;;5135781;28;20438;-56
2021/06/17 02:29:39;;;;;;;9.47;5.27;;;;;;;;;;5135598;28;20458;-55
2021/06/17 02:32:09;;;;;;;9.43;6.10;;;;;;;;;;5135254;28;20497;-56
2021/06/17 02:34:36;;;;;;;11.23;7.60;;;;;;;;;;5144482;27;20457;-56
2021/06/17 02:37:04;;;;;;;6.83;6.13;;;;;;;;;;5156388;27;20453;-59
2021/06/17 02:39:32;;;;;;;7.93;6.17;;;;;;;;;;5137241;27;20493;-54
2021/06/17 02:42:00;;;;;;;6.70;5.00;;;;;;;;;;5138367;27;20454;-56
2021/06/17 02:44:31;;;;;;;8.30;6.03;;;;;;;;;;5156465;27;20448;-52
2021/06/17 02:47:19;;;;;;;9.23;5.87;;;;;;;;;;5135951;27;20458;-55
2021/06/17 02:49:46;;;;;;;7.73;5.37;;;;;;;;;;5154121;27;20497;-53
2021/06/17 02:52:14;;;;;;;8.57;6.13;;;;;;;;;;5155909;27;20485;-56
2021/06/17 02:54:42;;;;;;;9.53;5.43;;;;;;;;;;5135969;28;20470;-57
2021/06/17 02:57:13;;;;;;;9.93;6.43;;;;;;;;;;5141472;27;20489;-60
2021/06/17 02:59:46;;;;;;;9.20;5.43;;;;;;;;;;5135146;28;20451;-58
2021/06/17 03:02:15;;;;;;;7.07;5.10;;;;;;;;;;5152616;27;20461;-56
2021/06/17 03:04:47;;;;;;;7.17;5.07;;;;;;;;;;5156419;27;20532;-56
2021/06/17 03:07:21;;;;;;;6.97;5.77;;;;;;;;;;5155223;27;20470;-59
2021/06/17 03:09:56;;;;;;;6.70;5.30;;;;;;;;;;5156026;27;20482;-60
2021/06/17 03:12:29;;;;;;;6.90;5.30;;;;;;;;;;5155833;27;20484;-56
2021/06/17 03:14:58;;;;;;;7.00;5.50;;;;;;;;;;5156673;28;20449;-55
2021/06/17 03:17:27;;;;;;;6.73;5.30;;;;;;;;;;5137286;28;20478;-59
2021/06/17 03:19:58;;;;;;;7.80;6.00;;;;;;;;;;5139935;28;20518;-57
2021/06/17 03:22:26;;;;;;;12.43;5.80;;;;;;;;;;5144186;28;20422;-56
2021/06/17 03:25:01;;;;;;;11.10;5.80;;;;;;;;;;5151554;28;20454;-56
2021/06/17 03:27:51;;;;;;;6.73;5.50;;;;;;;;;;5156500;28;20445;-54
2021/06/17 03:33:36;;;;;;;6.53;5.30;;;;;;;;;;5135906;28;20471;-58
2021/06/17 03:36:09;;;;;;;7.43;5.90;;;;;;;;;;5136436;28;20496;-55
2021/06/17 03:38:37;;;;;;;7.77;6.00;;;;;;;;;;5135636;28;20445;-55
2021/06/17 03:41:06;;;;;;;15.37;8.60;;;;;;;;;;5136462;28;20463;-53
2021/06/17 03:43:57;;;;;;;11.60;8.70;;;;;;;;;;5135066;28;20554;-59
2021/06/17 03:46:26;;;;;;;9.60;5.97;;;;;;;;;;5141678;28;20474;-55
2021/06/17 03:48:59;;;;;;;7.80;5.77;;;;;;;;;;5157070;28;20445;-60
2021/06/17 03:52:02;;;;;;;8.63;6.00;;;;;;;;;;5156638;28;20448;-57
2021/06/17 03:54:32;;;;;;;8.07;5.33;;;;;;;;;;5148766;28;20477;-55
2021/06/17 03:57:00;;;;;;;14.97;6.43;;;;;;;;;;5156255;27;20509;-52
2021/06/17 03:59:34;;;;;;;7.47;5.83;;;;;;;;;;5156705;27;20438;-54
2021/06/17 04:02:01;;;;;;;8.30;5.73;;;;;;;;;;5157007;28;20438;-57
2021/06/17 04:04:29;;;;;;;6.50;5.00;;;;;;;;;;5156595;28;20488;-57
2021/06/17 04:10:02;;;;;;;11.53;5.50;;;;;;;;;;5156388;28;20445;-58
2021/06/17 04:12:30;;;;;;;8.17;5.70;;;;;;;;;;5145261;28;20477;-57
2021/06/17 04:15:00;;;;;;;12.90;5.80;;;;;;;;;;5135705;28;20454;-56
2021/06/17 04:17:41;;;;;;;10.50;5.30;;;;;;;;;;5136112;27;20458;-59
2021/06/17 04:20:23;;;;;;;7.83;5.17;;;;;;;;;;5137344;28;20468;-58
2021/06/17 04:22:52;;;;;;;7.33;5.13;;;;;;;;;;5139340;28;20472;-59
2021/06/17 04:25:22;;;;;;;7.83;6.07;;;;;;;;;;5139651;28;20441;-56
2021/06/17 04:27:50;;;;;;;6.80;4.83;;;;;;;;;;5140126;27;20450;-54
2021/06/17 04:30:19;;;;;;;7.33;5.07;;;;;;;;;;5140317;27;20479;-55
2021/06/17 04:33:15;;;;;;;8.00;5.17;;;;;;;;;;5140216;28;20454;-57
2021/06/17 04:35:44;;;;;;;5.87;4.70;;;;;;;;;;5139958;28;20454;-52
2021/06/17 04:38:12;;;;;;;6.73;4.80;;;;;;;;;;5144618;27;20510;-56
2021/06/17 04:40:43;;;;;;;12.60;5.40;;;;;;;;;;5150237;27;20494;-58
2021/06/17 04:43:11;;;;;;;8.77;5.40;;;;;;;;;;5140808;27;20454;-55
2021/06/17 04:45:52;;;;;;;7.47;4.57;;;;;;;;;;5161074;27;20449;-60
2021/06/17 04:48:38;;;;;;;6.37;4.30;;;;;;;;;;5140469;27;20488;-54
2021/06/17 04:51:11;;;;;;;9.10;4.90;;;;;;;;;;5151527;27;20466;-57
2021/06/17 04:53:39;;;;;;;7.27;4.90;;;;;;;;;;5160651;27;20469;-57
2021/06/17 04:56:09;;;;;;;10.40;5.17;;;;;;;;;;5160854;27;20460;-55
2021/06/17 04:58:39;;;;;;;6.10;4.63;;;;;;;;;;5160416;27;20781;-53
2021/06/17 05:01:07;;;;;;;6.73;4.90;;;;;;;;;;5160062;27;20428;-57
2021/06/17 05:03:42;;;;;;;7.70;4.70;;;;;;;;;;5160210;27;20442;-60
2021/06/17 05:06:11;;;;;;;7.90;5.03;;;;;;;;;;5159982;27;20467;-53
2021/06/17 05:11:27;;;;;;;11.23;5.80;;;;;;;;;;5151571;27;20439;-56
2021/06/17 05:13:59;;;;;;;7.30;5.80;;;;;;;;;;5160041;27;20649;-55
2021/06/17 05:16:30;;;;;;;7.80;4.90;;;;;;;;;;5152904;27;20438;-59
2021/06/17 05:18:58;;;;;;;8.00;4.33;;;;;;;;;;5155548;27;20511;-58
2021/06/17 05:21:25;;;;;;;7.57;4.57;;;;;;;;;;5148905;27;20451;-59
2021/06/17 05:24:06;;;;;;;9.83;4.90;;;;;;;;;;5159390;27;20467;-53
2021/06/17 05:26:36;;;;;;;8.67;4.53;;;;;;;;;;5159080;27;20482;-56
2021/06/17 05:29:07;;;;;;;6.73;4.47;;;;;;;;;;5145484;27;20448;-61
2021/06/17 05:32:02;;;;;;;8.80;4.50;;;;;;;;;;5138527;27;20531;-59
2021/06/17 05:34:37;;;;;;;7.73;4.30;;;;;;;;;;5150651;27;20505;-57
2021/06/17 05:37:21;;;;;;;6.93;4.90;;;;;;;;;;5137663;27;20487;-55
2021/06/17 05:39:51;;;;;;;8.73;4.53;;;;;;;;;;5137531;28;20457;-59
2021/06/17 05:42:21;;;;;;;7.40;4.90;;;;;;;;;;5137559;27;20452;-55
2021/06/17 05:44:57;;;;;;;8.60;5.30;;;;;;;;;;5142079;27;20974;-61
2021/06/17 05:47:35;;;;;;;8.60;4.67;;;;;;;;;;5154081;27;20474;-58
2021/06/17 05:50:13;;;;;;;6.20;3.70;;;;;;;;;;5149698;27;20555;-53
2021/06/17 05:52:50;;;;;;;9.53;4.13;;;;;;;;;;5154261;27;20472;-55
2021/06/17 05:58:14;;;;;;;7.97;4.50;;;;;;;;;;5068709;28;20463;-56
2021/06/17 06:00:42;;;;;;;6.00;4.97;;;;;;;;;;5099940;27;20505;-52
2021/06/17 06:03:10;;;;;;;6.80;4.83;;;;;;;;;;5156152;27;20425;-61
2021/06/17 06:05:47;;;;;;;13.10;4.90;;;;;;;;;;5156810;27;20505;-59
2021/06/17 06:08:15;;;;;;;7.37;4.27;;;;;;;;;;5142479;27;20442;-56
2021/06/17 06:10:43;;;;;;;5.80;4.40;;;;;;;;;;5136111;28;20487;-58
2021/06/17 06:13:10;;;;;;;8.90;4.90;;;;;;;;;;5136261;27;20481;-58
2021/06/17 06:15:39;;;;;;;7.27;5.00;;;;;;;;;;5136606;28;20483;-57
2021/06/17 06:18:17;;;;;;;8.07;4.33;;;;;;;;;;5140036;27;20476;-59
2021/06/17 06:20:51;;;;;;;6.67;4.80;;;;;;;;;;5143635;27;20487;-58
2021/06/17 06:23:47;;;;;;;19.07;7.23;;;;;;;;;;5144816;27;20454;-59
2021/06/17 06:26:14;;;;;;;5.93;4.67;;;;;;;;;;5145286;27;20473;-60
2021/06/17 06:28:44;;;;;;;5.33;4.07;;;;;;;;;;5141665;27;20454;-56
2021/06/17 06:31:26;;;;;;;7.07;4.30;;;;;;;;;;5143635;27;20467;-56
2021/06/17 06:33:54;;;;;;;11.63;4.73;;;;;;;;;;5153749;27;20521;-61
2021/06/17 06:36:22;;;;;;;9.53;4.30;;;;;;;;;;5146277;27;20449;-57
2021/06/17 06:38:56;;;;;;;7.40;4.20;;;;;;;;;;5156091;27;20540;-61
2021/06/17 06:41:24;;;;;;;6.73;4.30;;;;;;;;;;5149460;27;20455;-56
2021/06/17 06:43:56;;;;;;;8.80;4.63;;;;;;;;;;5152636;27;20505;-62
2021/06/17 06:46:26;;;;;;;7.97;4.57;;;;;;;;;;5148135;27;20473;-57
2021/06/17 06:48:53;;;;;;;5.47;3.83;;;;;;;;;;5152931;27;20516;-58
2021/06/17 06:51:41;;;;;;;12.73;4.33;;;;;;;;;;5143375;27;20494;-60
2021/06/17 06:54:11;;;;;;;7.80;4.00;;;;;;;;;;5135011;27;20477;-58
2021/06/17 06:56:39;;;;;;;8.13;4.87;;;;;;;;;;5135883;27;20447;-58
2021/06/17 06:59:07;;;;;;;8.00;4.97;;;;;;;;;;5135596;27;20446;-53
2021/06/17 07:01:37;;;;;;;10.43;4.70;;;;;;;;;;5134210;27;20518;-58
2021/06/17 07:04:11;;;;;;;12.90;4.77;;;;;;;;;;5155210;27;20550;-60
2021/06/17 07:06:52;;;;;;;9.37;4.83;;;;;;;;;;5143040;27;20469;-61
2021/06/17 07:09:24;;;;;;;8.87;5.10;;;;;;;;;;5146886;27;20461;-56
2021/06/17 07:11:55;;;;;;;8.00;4.87;;;;;;;;;;5155974;27;20457;-58
2021/06/17 07:14:41;;;;;;;7.03;4.57;;;;;;;;;;5149417;27;20467;-57
2021/06/17 07:17:11;;;;;;;8.63;5.30;;;;;;;;;;5134561;28;20450;-58
2021/06/17 07:22:37;;;;;;;6.80;4.67;;;;;;;;;;5154432;27;20488;-61
2021/06/17 07:25:06;;;;;;;6.00;3.80;;;;;;;;;;5151553;27;20450;-58
2021/06/17 07:27:58;;;;;;;7.80;5.37;;;;;;;;;;5135944;28;20463;-58
2021/06/17 07:30:29;;;;;;;6.87;5.13;;;;;;;;;;5157909;27;20457;-55
2021/06/17 07:35:40;;;;;;;9.40;4.13;;;;;;;;;;5163136;27;20456;-60
2021/06/17 07:38:16;;;;;;;9.30;4.87;;;;;;;;;;5169821;27;20452;-60
2021/06/17 07:40:43;;;;;;;8.90;4.37;;;;;;;;;;5157921;27;20428;-55
2021/06/17 07:43:15;;;;;;;7.30;4.43;;;;;;;;;;5174432;27;20460;-60
2021/06/17 07:45:42;;;;;;;7.73;4.47;;;;;;;;;;5176434;27;20421;-59
2021/06/17 07:48:15;;;;;;;11.50;4.57;;;;;;;;;;5172368;27;20435;-60
2021/06/17 07:51:01;;;;;;;7.80;5.33;;;;;;;;;;5153971;27;20442;-57
2021/06/17 07:53:28;;;;;;;6.57;4.40;;;;;;;;;;5170041;27;20481;-61
2021/06/17 07:55:57;;;;;;;8.93;4.37;;;;;;;;;;5167159;27;20457;-60
2021/06/17 07:58:49;;;;;;;8.60;4.07;;;;;;;;;;5157043;27;20506;-58
2021/06/17 08:01:17;;;;;;;8.60;4.47;;;;;;;;;;5148341;27;20494;-55
2021/06/17 08:03:50;;;;;;;6.13;4.33;;;;;;;;;;5152295;27;20457;-60
2021/06/17 08:06:17;;;;;;;10.47;4.10;;;;;;;;;;5150917;27;20441;-57
2021/06/17 08:08:46;;;;;;;7.10;4.70;;;;;;;;;;5143476;27;20476;-59
2021/06/17 08:11:15;;;;;;;8.33;4.90;;;;;;;;;;5148718;27;20429;-58
2021/06/17 08:13:42;;;;;;;6.70;4.60;;;;;;;;;;5146721;27;20531;-55
2021/06/17 08:16:09;;;;;;;7.20;4.50;;;;;;;;;;5137055;28;20459;-58
2021/06/17 08:18:37;;;;;;;7.90;5.33;;;;;;;;;;5149594;27;20457;-57
2021/06/17 08:21:06;;;;;;;9.73;4.93;;;;;;;;;;5137630;27;20489;-55
2021/06/17 08:23:40;;;;;;;8.30;4.77;;;;;;;;;;5135081;28;20446;-59
2021/06/17 08:26:19;;;;;;;7.73;4.80;;;;;;;;;;5147199;27;20493;-57
2021/06/17 08:28:50;;;;;;;6.27;4.50;;;;;;;;;;5142358;27;20506;-52
2021/06/17 08:31:30;;;;;;;7.47;4.23;;;;;;;;;;5136661;28;20456;-54
2021/06/17 08:33:58;;;;;;;11.80;4.87;;;;;;;;;;5137022;28;20482;-60
2021/06/17 08:36:31;;;;;;;10.70;5.60;;;;;;;;;;5145414;27;20494;-59
2021/06/17 08:38:59;;;;;;;8.80;4.40;;;;;;;;;;5138019;28;20840;-57
2021/06/17 08:47:21;;;;;;;5.60;4.40;;;;;;;;;;5144801;27;20444;-55
2021/06/17 08:50:03;;;;;;;13.03;4.73;;;;;;;;;;5156727;27;20437;-57
2021/06/17 08:52:35;;;;;;;8.43;3.97;;;;;;;;;;5152487;27;20445;-59
2021/06/17 08:55:29;;;;;;;8.40;4.23;;;;;;;;;;5150687;27;20491;-57
2021/06/17 08:57:58;;;;;;;6.80;4.40;;;;;;;;;;5148277;27;20442;-58
2021/06/17 09:00:34;;;;;;;6.20;4.63;;;;;;;;;;5156119;27;20528;-57
2021/06/17 09:03:02;;;;;;;10.30;4.37;;;;;;;;;;5156794;27;20449;-54
2021/06/17 09:05:31;;;;;;;9.57;4.43;;;;;;;;;;5152426;27;20426;-51
2021/06/17 09:08:23;;;;;;;7.30;4.10;;;;;;;;;;5150187;27;20438;-60
2021/06/17 09:10:53;;;;;;;7.93;4.27;;;;;;;;;;5148271;27;20469;-57
2021/06/17 09:13:31;;;;;;;9.83;4.63;;;;;;;;;;5135438;28;20454;-58
2021/06/17 09:16:00;;;;;;;7.50;3.83;;;;;;;;;;5135769;28;20445;-58
2021/06/17 09:18:30;;;;;;;6.80;5.20;;;;;;;;;;5149125;27;20507;-60
2021/06/17 09:21:20;;;;;;;8.83;5.00;;;;;;;;;;5145272;27;20445;-53
2021/06/17 09:23:49;;;;;;;9.50;4.10;;;;;;;;;;5152715;27;20503;-59
2021/06/17 09:26:19;;;;;;;7.07;4.00;;;;;;;;;;5156163;27;20471;-59
2021/06/17 09:29:00;;;;;;;7.03;4.70;;;;;;;;;;5138508;27;20438;-59
2021/06/17 09:31:29;;;;;;;7.53;4.63;;;;;;;;;;5154798;27;20461;-61
2021/06/17 09:33:57;;;;;;;6.50;4.30;;;;;;;;;;5152949;27;20481;-55
2021/06/17 09:36:32;;;;;;;6.13;4.17;;;;;;;;;;5140833;27;20580;-55
2021/06/17 09:39:04;;;;;;;6.50;4.90;;;;;;;;;;5141490;27;20488;-57
2021/06/17 09:41:39;;;;;;;10.33;5.77;;;;;;;;;;5148408;27;20616;-52
2021/06/17 09:44:27;;;;;;;8.70;4.23;;;;;;;;;;5150777;27;20433;-57
2021/06/17 09:47:09;;;;;;;5.90;5.00;;;;;;;;;;5146075;27;20478;-56
2021/06/17 09:49:38;;;;;;;8.40;4.07;;;;;;;;;;5140382;27;20493;-58
2021/06/17 09:52:13;;;;;;;7.47;3.90;;;;;;;;;;5147338;27;20479;-63
2021/06/17 09:54:45;;;;;;;4.90;3.83;;;;;;;;;;5146258;27;20489;-56
2021/06/17 09:57:26;;;;;;;10.67;4.73;;;;;;;;;;5153974;27;20442;-55
2021/06/17 09:59:55;;;;;;;6.00;4.30;;;;;;;;;;5153573;27;20456;-53
2021/06/17 10:02:45;;;;;;;6.67;3.90;;;;;;;;;;5154227;27;20450;-58
2021/06/17 10:05:15;;;;;;;7.30;4.73;;;;;;;;;;5154194;27;20433;-55
2021/06/17 10:07:45;;;;;;;5.43;4.00;;;;;;;;;;5137987;27;20522;-57
2021/06/17 10:10:16;;;;;;;5.93;3.43;;;;;;;;;;5132445;28;20460;-54
2021/06/17 10:12:44;;;;;;;6.70;4.23;;;;;;;;;;5132540;28;20450;-52
2021/06/17 10:15:14;;;;;;;7.90;3.83;;;;;;;;;;5142709;27;20550;-57
2021/06/17 10:17:42;;;;;;;8.07;4.10;;;;;;;;;;5152035;27;20461;-52
2021/06/17 10:20:33;;;;;;;5.97;4.30;;;;;;;;;;5153834;27;20433;-59
2021/06/17 10:23:35;;;;;;;6.33;3.80;;;;;;;;;;5123742;27;20510;-58
2021/06/17 10:26:07;;;;;;;8.30;4.00;;;;;;;;;;5154654;27;20453;-51
2021/06/17 10:28:41;;;;;;;4.57;3.73;;;;;;;;;;5141166;27;20462;-59
2021/06/17 10:31:28;;;;;;;5.37;4.30;;;;;;;;;;5148665;27;20445;-59
2021/06/17 10:33:55;;;;;;;8.30;4.87;;;;;;;;;;5110951;28;20443;-52
2021/06/17 10:36:37;;;;;;;6.00;4.63;;;;;;;;;;5108109;28;20463;-55
2021/06/17 10:39:14;;;;;;;10.07;4.73;;;;;;;;;;5113947;28;20510;-55
2021/06/17 10:45:06;;;;;;;8.73;5.07;;;;;;;;;;5111625;28;20417;-57
2021/06/17 10:48:17;;;;;;;7.20;4.47;;;;;;;;;;5091745;28;20456;-54
2021/06/17 10:51:11;;;;;;;9.23;5.53;;;;;;;;;;5105462;28;20454;-57
2021/06/17 10:53:54;;;;;;;6.00;4.17;;;;;;;;;;5148207;27;20469;-54
2021/06/17 10:56:26;;;;;;;9.03;4.20;;;;;;;;;;5154375;27;20453;-57
2021/06/17 10:59:00;;;;;;;6.30;4.63;;;;;;;;;;5153183;27;20465;-59
2021/06/17 11:04:27;;;;;;;5.77;4.23;;;;;;;;;;5088035;28;20562;-61
2021/06/17 11:07:38;;;;;;;13.17;5.43;;;;;;;;;;5150291;27;20480;-64
2021/06/17 11:10:09;;;;;;;9.57;4.93;;;;;;;;;;5142822;27;20503;-56
2021/06/17 11:12:56;;;;;;;6.37;3.40;;;;;;;;;;5155400;27;20469;-56
2021/06/17 11:18:55;;;;;;;6.80;3.50;;;;;;;;;;5130117;27;20449;-54
2021/06/17 11:24:47;;;;;;;12.33;4.70;;;;;;;;;;5100700;27;20443;-54
2021/06/17 11:27:36;;;;;;;13.00;4.70;;;;;;;;;;5172308;27;20475;-52
2021/06/17 11:33:32;;;;;;;11.13;4.67;;;;;;;;;;5150177;27;20503;-57
2021/06/17 11:36:28;;;;;;;6.57;3.90;;;;;;;;;;5157814;27;20476;-56
2021/06/17 11:39:02;;;;;;;10.73;4.50;;;;;;;;;;5143436;27;20449;-56
2021/06/17 11:41:54;;;;;;;5.20;4.10;;;;;;;;;;5157927;27;20453;-60
2021/06/17 11:44:25;;;;;;;13.50;4.73;;;;;;;;;;5152254;27;20493;-56
2021/06/17 11:46:52;;;;;;;12.60;4.87;;;;;;;;;;5152013;27;20449;-54
2021/06/17 11:49:20;;;;;;;5.13;3.53;;;;;;;;;;5152600;27;20493;-57
2021/06/17 11:51:49;;;;;;;7.70;4.60;;;;;;;;;;5148996;27;20448;-57
2021/06/17 11:54:24;;;;;;;9.37;5.40;;;;;;;;;;5144088;27;20461;-60
2021/06/17 11:56:53;;;;;;;10.03;4.53;;;;;;;;;;5148280;27;20518;-54
2021/06/17 11:59:27;;;;;;;9.40;4.27;;;;;;;;;;5138262;27;20450;-57
2021/06/17 12:02:25;;;;;;;6.80;4.10;;;;;;;;;;5152586;27;20500;-53
2021/06/17 12:05:16;;;;;;;9.80;5.07;;;;;;;;;;5147032;27;20523;-54
2021/06/17 12:07:46;;;;;;;8.43;4.80;;;;;;;;;;5140745;27;20437;-56
2021/06/17 12:10:17;;;;;;;13.20;4.17;;;;;;;;;;5146701;27;20466;-56
2021/06/17 12:12:48;;;;;;;9.67;5.03;;;;;;;;;;5151633;27;20483;-54
2021/06/17 12:15:21;;;;;;;6.47;4.27;;;;;;;;;;5142279;27;20477;-58
2021/06/17 12:17:59;;;;;;;8.60;4.50;;;;;;;;;;5143335;27;20449;-58
2021/06/17 12:20:30;;;;;;;9.70;6.07;;;;;;;;;;5136920;27;20441;-56
2021/06/17 12:23:06;;;;;;;8.50;5.30;;;;;;;;;;5142325;27;20473;-57
2021/06/17 12:25:35;;;;;;;5.30;4.30;;;;;;;;;;5140069;27;20559;-53
2021/06/17 12:28:05;;;;;;;27.17;7.60;;;;;;;;;;5146926;27;20457;-53
2021/06/17 12:30:36;;;;;;;9.90;7.33;;;;;;;;;;5141157;27;20454;-58
2021/06/17 12:33:06;;;;;;;15.40;6.87;;;;;;;;;;5135357;27;20461;-58
2021/06/17 12:35:39;;;;;;;11.50;7.50;;;;;;;;;;5141772;27;20483;-57
2021/06/17 12:38:26;;;;;;;12.13;7.17;;;;;;;;;;5144369;27;20449;-60
2021/06/17 12:40:55;;;;;;;9.07;5.10;;;;;;;;;;5137821;28;20454;-54
2021/06/17 12:43:23;;;;;;;7.20;5.53;;;;;;;;;;5153928;27;20465;-56
2021/06/17 12:46:05;;;;;;;10.50;6.83;;;;;;;;;;5140249;27;20458;-50
2021/06/17 12:54:01;;;;;;;8.37;5.80;;;;;;;;;;5103877;28;20427;-52
2021/06/17 12:56:39;;;;;;;12.20;6.50;;;;;;;;;;5109591;28;20479;-57
2021/06/17 12:59:09;;;;;;;8.60;5.53;;;;;;;;;;5101326;28;20520;-51
2021/06/17 13:01:49;;;;;;;11.00;6.73;;;;;;;;;;5104092;28;20452;-53
2021/06/17 13:04:16;;;;;;;9.90;6.50;;;;;;;;;;5102116;28;20535;-59
2021/06/17 13:06:44;;;;;;;7.83;6.43;;;;;;;;;;5093419;28;20455;-56
2021/06/17 13:09:21;;;;;;;8.97;6.47;;;;;;;;;;5103493;28;20456;-57
2021/06/17 13:12:07;;;;;;;7.10;6.20;;;;;;;;;;5101805;28;20513;-56
2021/06/17 13:14:35;;;;;;;10.00;6.57;;;;;;;;;;5105875;28;20547;-58
2021/06/17 13:17:06;;;;;;;17.53;11.13;;;;;;;;;;5102066;28;20484;-54
2021/06/17 13:19:34;;;;;;;10.40;8.07;;;;;;;;;;5104829;28;20504;-54
2021/06/17 13:22:03;;;;;;;7.67;6.80;;;;;;;;;;5103944;28;20448;-55
2021/06/17 13:24:30;;;;;;;9.30;7.20;;;;;;;;;;5103526;28;20451;-58
2021/06/17 13:27:19;;;;;;;8.80;7.50;;;;;;;;;;5098204;28;20440;-57
2021/06/17 13:30:02;;;;;;;7.77;6.97;;;;;;;;;;5094897;28;20456;-55
2021/06/17 13:32:34;;;;;;;8.10;7.30;;;;;;;;;;5097874;28;20495;-56
2021/06/17 13:35:02;;;;;;;10.03;7.00;;;;;;;;;;5101320;28;20492;-54
2021/06/17 13:37:35;;;;;;;10.40;6.07;;;;;;;;;;5095105;28;20471;-58
2021/06/17 13:40:02;;;;;;;9.67;7.50;;;;;;;;;;5105699;28;20459;-55
2021/06/17 13:42:34;;;;;;;9.77;6.80;;;;;;;;;;5097026;28;20456;-60
2021/06/17 13:45:02;;;;;;;10.23;6.70;;;;;;;;;;5094522;28;20432;-50
2021/06/17 13:47:29;;;;;;;10.53;6.93;;;;;;;;;;5099964;28;20451;-55
2021/06/17 13:49:58;;;;;;;10.67;6.77;;;;;;;;;;5137463;27;20473;-53
2021/06/17 13:52:28;;;;;;;8.43;7.50;;;;;;;;;;5137765;27;20462;-55
2021/06/17 13:54:55;;;;;;;8.40;6.83;;;;;;;;;;5134856;28;20470;-55
2021/06/17 13:57:31;;;;;;;10.87;6.70;;;;;;;;;;5151286;27;20480;-53
2021/06/17 14:00:13;;;;;;;10.43;7.13;;;;;;;;;;5147141;27;20487;-52
2021/06/17 14:02:40;;;;;;;16.73;7.50;;;;;;;;;;5152268;27;20525;-58
2021/06/17 14:05:09;;;;;;;14.00;8.70;;;;;;;;;;5140982;27;20473;-56
2021/06/17 14:07:37;;;;;;;8.90;7.30;;;;;;;;;;5135576;27;20462;-53
2021/06/17 14:10:08;;;;;;;12.43;6.77;;;;;;;;;;5133321;27;20450;-52
2021/06/17 14:12:43;;;;;;;9.60;6.10;;;;;;;;;;5133994;27;20577;-54
2021/06/17 14:15:20;;;;;;;10.50;7.30;;;;;;;;;;5133859;27;20516;-58
2021/06/17 14:17:49;;;;;;;12.13;6.80;;;;;;;;;;5140594;27;20484;-54
2021/06/17 14:20:18;;;;;;;9.67;6.70;;;;;;;;;;5133041;27;20476;-57
2021/06/17 14:22:46;;;;;;;11.50;7.73;;;;;;;;;;5151586;27;20488;-58
2021/06/17 14:25:13;;;;;;;9.07;6.30;;;;;;;;;;5141649;27;20462;-53
2021/06/17 14:27:41;;;;;;;11.00;7.50;;;;;;;;;;5146995;27;20445;-55
2021/06/17 14:30:11;;;;;;;10.27;6.67;;;;;;;;;;5132866;27;20454;-54
2021/06/17 14:32:43;;;;;;;12.30;7.10;;;;;;;;;;5132531;27;20463;-59
2021/06/17 14:35:11;;;;;;;8.10;4.97;;;;;;;;;;5144335;27;20488;-52
2021/06/17 14:37:42;;;;;;;10.60;6.50;;;;;;;;;;5133820;27;20466;-55
2021/06/17 14:40:13;;;;;;;8.50;5.80;;;;;;;;;;5145746;27;20713;-57
2021/06/17 14:42:43;;;;;;;8.20;6.43;;;;;;;;;;5147528;27;20449;-53
2021/06/17 14:45:13;;;;;;;11.07;7.33;;;;;;;;;;5144008;27;20474;-54
2021/06/17 14:47:41;;;;;;;11.63;8.63;;;;;;;;;;5142371;27;20502;-53
2021/06/17 14:50:22;;;;;;;13.00;9.40;;;;;;;;;;5141386;27;20458;-53
2021/06/17 14:52:51;;;;;;;13.30;7.97;;;;;;;;;;5148509;27;20491;-57
2021/06/17 14:55:23;;;;;;;16.17;7.53;;;;;;;;;;5131656;28;20470;-52
2021/06/17 14:57:50;;;;;;;10.17;8.00;;;;;;;;;;5138655;27;20453;-52
2021/06/17 15:00:24;;;;;;;10.40;7.27;;;;;;;;;;5145758;27;20464;-57
2021/06/17 15:02:53;;;;;;;9.73;6.20;;;;;;;;;;5139081;27;20456;-58
2021/06/17 15:05:22;;;;;;;13.27;6.80;;;;;;;;;;5141784;27;21717;-55
2021/06/17 15:07:53;;;;;;;8.17;5.80;;;;;;;;;;5138226;27;20888;-53
2021/06/17 15:10:28;;;;;;;10.10;6.40;;;;;;;;;;5142824;27;20454;-55
2021/06/17 15:13:00;;;;;;;12.40;7.60;;;;;;;;;;5134563;28;20461;-56
2021/06/17 15:15:31;;;;;;;10.50;7.43;;;;;;;;;;5113172;28;20493;-55
2021/06/17 15:17:59;;;;;;;10.43;7.63;;;;;;;;;;5130734;27;20451;-59
2021/06/17 15:20:48;;;;;;;20.53;13.57;;;;;;;;;;5143274;28;20521;-54
2021/06/17 15:23:21;;;;;;;12.70;9.90;;;;;;;;;;5139927;28;20491;-58
2021/06/17 15:25:48;;;;;;;11.87;7.87;;;;;;;;;;5135290;28;20521;-58
2021/06/17 15:28:17;;;;;;;14.70;9.80;;;;;;;;;;5131328;28;20447;-57
2021/06/17 15:30:46;;;;;;;11.63;8.23;;;;;;;;;;5136042;28;20466;-55
2021/06/17 15:33:17;;;;;;;13.67;7.60;;;;;;;;;;5113426;28;20479;-56
2021/06/17 15:36:00;;;;;;;14.43;10.03;;;;;;;;;;5095019;28;20487;-58
2021/06/17 15:38:38;;;;;;;8.30;6.50;;;;;;;;;;5107492;28;20466;-58
2021/06/17 15:41:06;;;;;;;8.90;6.67;;;;;;;;;;5093843;28;20547;-58
2021/06/17 15:44:11;;;;;;;14.67;7.30;;;;;;;;;;5093979;28;20452;-53
2021/06/17 15:46:41;;;;;;;15.00;7.90;;;;;;;;;;5099843;28;20455;-54
2021/06/17 15:51:53;;;;;;;13.00;6.43;;;;;;;;;;5097516;28;21598;-55
2021/06/17 15:54:23;;;;;;;14.27;7.47;;;;;;;;;;5108641;28;20458;-52
2021/06/17 15:57:07;;;;;;;8.97;6.10;;;;;;;;;;5112365;28;20493;-55
2021/06/17 15:59:35;;;;;;;11.53;7.53;;;;;;;;;;5118971;28;20530;-62
2021/06/17 16:04:47;;;;;;;9.70;6.70;;;;;;;;;;5122540;27;20532;-57